<?xml version="1.0" encoding="UTF-8" standalone="no" ?>
<gpx xmlns="http://www.topografix.com/GPX/1/1" xmlns:xsi="http://www.w3.org/2001/XMLSchema-instance" xsi:schemaLocation="http://www.topografix.com/GPX/1/1 http://www.topografix.com/GPX/1/1/gpx.xsd" version="1.1" creator="VisuGPX - https://www.visugpx.com">
  <metadata>
    <name>Le mont Gerbier des Joncs</name>
    <desc><![CDATA[Montée et descente du Mont Gerbier]]></desc>
  </metadata>
  <trk>
    <name><![CDATA[2015-10-11 11:55:53]]></name>
    <trkseg>
      <trkpt lat="44.84273" lon="4.21663">
        <ele>1409.43</ele>
        <time>2015-10-11T08:09:28Z</time>
      </trkpt>
      <trkpt lat="44.84273" lon="4.21664">
        <ele>1409.43</ele>
        <time>2015-10-11T08:09:29Z</time>
      </trkpt>
      <trkpt lat="44.84272" lon="4.21664">
        <ele>1416.16</ele>
        <time>2015-10-11T08:09:32Z</time>
      </trkpt>
      <trkpt lat="44.84272" lon="4.21664">
        <ele>1416.16</ele>
        <time>2015-10-11T08:09:33Z</time>
      </trkpt>
      <trkpt lat="44.84272" lon="4.21664">
        <ele>1416.16</ele>
        <time>2015-10-11T08:09:54Z</time>
      </trkpt>
      <trkpt lat="44.8427" lon="4.21663">
        <ele>1416.16</ele>
        <time>2015-10-11T08:10:27Z</time>
      </trkpt>
      <trkpt lat="44.84271" lon="4.21664">
        <ele>1415.68</ele>
        <time>2015-10-11T08:11:02Z</time>
      </trkpt>
      <trkpt lat="44.84271" lon="4.21666">
        <ele>1415.68</ele>
        <time>2015-10-11T08:11:16Z</time>
      </trkpt>
      <trkpt lat="44.84267" lon="4.21671">
        <ele>1415.68</ele>
        <time>2015-10-11T08:11:29Z</time>
      </trkpt>
      <trkpt lat="44.84269" lon="4.21671">
        <ele>1414.72</ele>
        <time>2015-10-11T08:11:49Z</time>
      </trkpt>
      <trkpt lat="44.8427" lon="4.21674">
        <ele>1414.72</ele>
        <time>2015-10-11T08:12:18Z</time>
      </trkpt>
      <trkpt lat="44.84268" lon="4.21673">
        <ele>1414.24</ele>
        <time>2015-10-11T08:12:43Z</time>
      </trkpt>
      <trkpt lat="44.84268" lon="4.21673">
        <ele>1415.68</ele>
        <time>2015-10-11T08:12:57Z</time>
      </trkpt>
      <trkpt lat="44.84267" lon="4.21671">
        <ele>1415.68</ele>
        <time>2015-10-11T08:13:13Z</time>
      </trkpt>
      <trkpt lat="44.84267" lon="4.21672">
        <ele>1415.68</ele>
        <time>2015-10-11T08:13:31Z</time>
      </trkpt>
      <trkpt lat="44.84264" lon="4.21673">
        <ele>1415.68</ele>
        <time>2015-10-11T08:14:01Z</time>
      </trkpt>
      <trkpt lat="44.84264" lon="4.21672">
        <ele>1415.68</ele>
        <time>2015-10-11T08:14:12Z</time>
      </trkpt>
      <trkpt lat="44.84264" lon="4.21671">
        <ele>1415.68</ele>
        <time>2015-10-11T08:14:36Z</time>
      </trkpt>
      <trkpt lat="44.84266" lon="4.21674">
        <ele>1415.68</ele>
        <time>2015-10-11T08:14:51Z</time>
      </trkpt>
      <trkpt lat="44.84266" lon="4.21673">
        <ele>1415.68</ele>
        <time>2015-10-11T08:15:09Z</time>
      </trkpt>
      <trkpt lat="44.84266" lon="4.21674">
        <ele>1415.68</ele>
        <time>2015-10-11T08:15:22Z</time>
      </trkpt>
      <trkpt lat="44.84268" lon="4.21676">
        <ele>1415.68</ele>
        <time>2015-10-11T08:15:41Z</time>
      </trkpt>
      <trkpt lat="44.84268" lon="4.21677">
        <ele>1415.68</ele>
        <time>2015-10-11T08:15:58Z</time>
      </trkpt>
      <trkpt lat="44.8427" lon="4.21671">
        <ele>1415.68</ele>
        <time>2015-10-11T08:16:12Z</time>
      </trkpt>
      <trkpt lat="44.84278" lon="4.21664">
        <ele>1415.68</ele>
        <time>2015-10-11T08:16:26Z</time>
      </trkpt>
      <trkpt lat="44.84282" lon="4.21662">
        <ele>1415.68</ele>
        <time>2015-10-11T08:16:34Z</time>
      </trkpt>
      <trkpt lat="44.84292" lon="4.21652">
        <ele>1415.68</ele>
        <time>2015-10-11T08:16:48Z</time>
      </trkpt>
      <trkpt lat="44.84294" lon="4.21652">
        <ele>1415.68</ele>
        <time>2015-10-11T08:16:51Z</time>
      </trkpt>
      <trkpt lat="44.84305" lon="4.21643">
        <ele>1415.68</ele>
        <time>2015-10-11T08:17:02Z</time>
      </trkpt>
      <trkpt lat="44.84309" lon="4.21639">
        <ele>1416.16</ele>
        <time>2015-10-11T08:17:11Z</time>
      </trkpt>
      <trkpt lat="44.84321" lon="4.21641">
        <ele>1416.16</ele>
        <time>2015-10-11T08:17:27Z</time>
      </trkpt>
      <trkpt lat="44.84318" lon="4.21647">
        <ele>1416.16</ele>
        <time>2015-10-11T08:17:38Z</time>
      </trkpt>
      <trkpt lat="44.8432" lon="4.21652">
        <ele>1416.16</ele>
        <time>2015-10-11T08:17:47Z</time>
      </trkpt>
      <trkpt lat="44.84318" lon="4.21655">
        <ele>1416.16</ele>
        <time>2015-10-11T08:17:50Z</time>
      </trkpt>
      <trkpt lat="44.84316" lon="4.21668">
        <ele>1419.04</ele>
        <time>2015-10-11T08:18:03Z</time>
      </trkpt>
      <trkpt lat="44.84313" lon="4.21671">
        <ele>1420</ele>
        <time>2015-10-11T08:18:10Z</time>
      </trkpt>
      <trkpt lat="44.84312" lon="4.21686">
        <ele>1420.97</ele>
        <time>2015-10-11T08:18:23Z</time>
      </trkpt>
      <trkpt lat="44.84311" lon="4.21695">
        <ele>1422.41</ele>
        <time>2015-10-11T08:18:34Z</time>
      </trkpt>
      <trkpt lat="44.8431" lon="4.21697">
        <ele>1422.41</ele>
        <time>2015-10-11T08:18:36Z</time>
      </trkpt>
      <trkpt lat="44.84306" lon="4.21703">
        <ele>1422.41</ele>
        <time>2015-10-11T08:18:50Z</time>
      </trkpt>
      <trkpt lat="44.84304" lon="4.21705">
        <ele>1422.89</ele>
        <time>2015-10-11T08:19:03Z</time>
      </trkpt>
      <trkpt lat="44.84296" lon="4.21717">
        <ele>1422.89</ele>
        <time>2015-10-11T08:19:16Z</time>
      </trkpt>
      <trkpt lat="44.84294" lon="4.2172">
        <ele>1422.89</ele>
        <time>2015-10-11T08:19:20Z</time>
      </trkpt>
      <trkpt lat="44.8429" lon="4.21726">
        <ele>1423.37</ele>
        <time>2015-10-11T08:19:26Z</time>
      </trkpt>
      <trkpt lat="44.84282" lon="4.21744">
        <ele>1423.85</ele>
        <time>2015-10-11T08:19:44Z</time>
      </trkpt>
      <trkpt lat="44.8428" lon="4.21759">
        <ele>1425.29</ele>
        <time>2015-10-11T08:19:57Z</time>
      </trkpt>
      <trkpt lat="44.84274" lon="4.21775">
        <ele>1426.25</ele>
        <time>2015-10-11T08:20:13Z</time>
      </trkpt>
      <trkpt lat="44.84273" lon="4.21779">
        <ele>1426.73</ele>
        <time>2015-10-11T08:20:17Z</time>
      </trkpt>
      <trkpt lat="44.84266" lon="4.21798">
        <ele>1427.7</ele>
        <time>2015-10-11T08:20:34Z</time>
      </trkpt>
      <trkpt lat="44.84265" lon="4.21813">
        <ele>1428.18</ele>
        <time>2015-10-11T08:20:46Z</time>
      </trkpt>
      <trkpt lat="44.84264" lon="4.21822">
        <ele>1428.66</ele>
        <time>2015-10-11T08:20:53Z</time>
      </trkpt>
      <trkpt lat="44.84259" lon="4.21839">
        <ele>1429.14</ele>
        <time>2015-10-11T08:21:08Z</time>
      </trkpt>
      <trkpt lat="44.84256" lon="4.21845">
        <ele>1429.14</ele>
        <time>2015-10-11T08:21:13Z</time>
      </trkpt>
      <trkpt lat="44.84249" lon="4.21863">
        <ele>1429.62</ele>
        <time>2015-10-11T08:21:29Z</time>
      </trkpt>
      <trkpt lat="44.84249" lon="4.21866">
        <ele>1429.62</ele>
        <time>2015-10-11T08:21:32Z</time>
      </trkpt>
      <trkpt lat="44.84247" lon="4.21881">
        <ele>1429.62</ele>
        <time>2015-10-11T08:21:46Z</time>
      </trkpt>
      <trkpt lat="44.84244" lon="4.21899">
        <ele>1430.1</ele>
        <time>2015-10-11T08:22:02Z</time>
      </trkpt>
      <trkpt lat="44.84247" lon="4.21909">
        <ele>1432.02</ele>
        <time>2015-10-11T08:22:21Z</time>
      </trkpt>
      <trkpt lat="44.84252" lon="4.21918">
        <ele>1434.91</ele>
        <time>2015-10-11T08:22:35Z</time>
      </trkpt>
      <trkpt lat="44.84259" lon="4.21931">
        <ele>1437.31</ele>
        <time>2015-10-11T08:22:51Z</time>
      </trkpt>
      <trkpt lat="44.8426" lon="4.21938">
        <ele>1440.67</ele>
        <time>2015-10-11T08:23:06Z</time>
      </trkpt>
      <trkpt lat="44.84264" lon="4.21946">
        <ele>1444.04</ele>
        <time>2015-10-11T08:23:22Z</time>
      </trkpt>
      <trkpt lat="44.84268" lon="4.21951">
        <ele>1446.92</ele>
        <time>2015-10-11T08:23:38Z</time>
      </trkpt>
      <trkpt lat="44.84268" lon="4.21955">
        <ele>1448.36</ele>
        <time>2015-10-11T08:23:51Z</time>
      </trkpt>
      <trkpt lat="44.84272" lon="4.21961">
        <ele>1450.77</ele>
        <time>2015-10-11T08:24:06Z</time>
      </trkpt>
      <trkpt lat="44.84274" lon="4.21971">
        <ele>1454.13</ele>
        <time>2015-10-11T08:24:20Z</time>
      </trkpt>
      <trkpt lat="44.84275" lon="4.21978">
        <ele>1456.53</ele>
        <time>2015-10-11T08:24:34Z</time>
      </trkpt>
      <trkpt lat="44.84281" lon="4.21979">
        <ele>1459.9</ele>
        <time>2015-10-11T08:24:50Z</time>
      </trkpt>
      <trkpt lat="44.84283" lon="4.21984">
        <ele>1461.34</ele>
        <time>2015-10-11T08:25:02Z</time>
      </trkpt>
      <trkpt lat="44.84287" lon="4.21984">
        <ele>1463.74</ele>
        <time>2015-10-11T08:25:16Z</time>
      </trkpt>
      <trkpt lat="44.84291" lon="4.21979">
        <ele>1465.19</ele>
        <time>2015-10-11T08:25:28Z</time>
      </trkpt>
      <trkpt lat="44.84298" lon="4.21974">
        <ele>1468.55</ele>
        <time>2015-10-11T08:25:42Z</time>
      </trkpt>
      <trkpt lat="44.84302" lon="4.21978">
        <ele>1470.47</ele>
        <time>2015-10-11T08:25:54Z</time>
      </trkpt>
      <trkpt lat="44.84303" lon="4.21975">
        <ele>1472.4</ele>
        <time>2015-10-11T08:26:06Z</time>
      </trkpt>
      <trkpt lat="44.84302" lon="4.21974">
        <ele>1470.95</ele>
        <time>2015-10-11T08:26:12Z</time>
      </trkpt>
      <trkpt lat="44.84301" lon="4.21972">
        <ele>1472.4</ele>
        <time>2015-10-11T08:26:36Z</time>
      </trkpt>
      <trkpt lat="44.84304" lon="4.21976">
        <ele>1472.88</ele>
        <time>2015-10-11T08:26:51Z</time>
      </trkpt>
      <trkpt lat="44.84303" lon="4.21983">
        <ele>1475.76</ele>
        <time>2015-10-11T08:27:01Z</time>
      </trkpt>
      <trkpt lat="44.84302" lon="4.2199">
        <ele>1478.65</ele>
        <time>2015-10-11T08:27:13Z</time>
      </trkpt>
      <trkpt lat="44.84308" lon="4.21994">
        <ele>1480.57</ele>
        <time>2015-10-11T08:27:25Z</time>
      </trkpt>
      <trkpt lat="44.8431" lon="4.21998">
        <ele>1483.45</ele>
        <time>2015-10-11T08:27:36Z</time>
      </trkpt>
      <trkpt lat="44.84312" lon="4.22001">
        <ele>1484.89</ele>
        <time>2015-10-11T08:27:47Z</time>
      </trkpt>
      <trkpt lat="44.84317" lon="4.22">
        <ele>1487.78</ele>
        <time>2015-10-11T08:28:00Z</time>
      </trkpt>
      <trkpt lat="44.84316" lon="4.22006">
        <ele>1490.66</ele>
        <time>2015-10-11T08:28:14Z</time>
      </trkpt>
      <trkpt lat="44.8432" lon="4.22009">
        <ele>1492.1</ele>
        <time>2015-10-11T08:28:25Z</time>
      </trkpt>
      <trkpt lat="44.84324" lon="4.22005">
        <ele>1494.51</ele>
        <time>2015-10-11T08:28:37Z</time>
      </trkpt>
      <trkpt lat="44.84328" lon="4.22006">
        <ele>1497.39</ele>
        <time>2015-10-11T08:28:51Z</time>
      </trkpt>
      <trkpt lat="44.8433" lon="4.22008">
        <ele>1499.31</ele>
        <time>2015-10-11T08:28:59Z</time>
      </trkpt>
      <trkpt lat="44.84332" lon="4.22008">
        <ele>1500.76</ele>
        <time>2015-10-11T08:29:10Z</time>
      </trkpt>
      <trkpt lat="44.84329" lon="4.22009">
        <ele>1501.24</ele>
        <time>2015-10-11T08:29:24Z</time>
      </trkpt>
      <trkpt lat="44.8433" lon="4.22018">
        <ele>1502.68</ele>
        <time>2015-10-11T08:29:37Z</time>
      </trkpt>
      <trkpt lat="44.84335" lon="4.22016">
        <ele>1505.56</ele>
        <time>2015-10-11T08:29:50Z</time>
      </trkpt>
      <trkpt lat="44.84336" lon="4.22019">
        <ele>1507</ele>
        <time>2015-10-11T08:30:02Z</time>
      </trkpt>
      <trkpt lat="44.84335" lon="4.22025">
        <ele>1508.45</ele>
        <time>2015-10-11T08:30:15Z</time>
      </trkpt>
      <trkpt lat="44.84339" lon="4.22025">
        <ele>1510.85</ele>
        <time>2015-10-11T08:30:28Z</time>
      </trkpt>
      <trkpt lat="44.84337" lon="4.22032">
        <ele>1513.73</ele>
        <time>2015-10-11T08:30:41Z</time>
      </trkpt>
      <trkpt lat="44.84339" lon="4.22034">
        <ele>1515.18</ele>
        <time>2015-10-11T08:30:51Z</time>
      </trkpt>
      <trkpt lat="44.84342" lon="4.22031">
        <ele>1516.62</ele>
        <time>2015-10-11T08:31:03Z</time>
      </trkpt>
      <trkpt lat="44.84345" lon="4.22032">
        <ele>1518.54</ele>
        <time>2015-10-11T08:31:15Z</time>
      </trkpt>
      <trkpt lat="44.84344" lon="4.22037">
        <ele>1520.94</ele>
        <time>2015-10-11T08:31:29Z</time>
      </trkpt>
      <trkpt lat="44.84346" lon="4.22038">
        <ele>1522.87</ele>
        <time>2015-10-11T08:31:46Z</time>
      </trkpt>
      <trkpt lat="44.8435" lon="4.2204">
        <ele>1525.27</ele>
        <time>2015-10-11T08:31:59Z</time>
      </trkpt>
      <trkpt lat="44.84352" lon="4.22037">
        <ele>1527.19</ele>
        <time>2015-10-11T08:32:11Z</time>
      </trkpt>
      <trkpt lat="44.84355" lon="4.22039">
        <ele>1528.63</ele>
        <time>2015-10-11T08:32:23Z</time>
      </trkpt>
      <trkpt lat="44.84355" lon="4.22047">
        <ele>1531.04</ele>
        <time>2015-10-11T08:32:34Z</time>
      </trkpt>
      <trkpt lat="44.84359" lon="4.22042">
        <ele>1532.48</ele>
        <time>2015-10-11T08:32:44Z</time>
      </trkpt>
      <trkpt lat="44.84361" lon="4.22042">
        <ele>1532.96</ele>
        <time>2015-10-11T08:32:47Z</time>
      </trkpt>
      <trkpt lat="44.84364" lon="4.22036">
        <ele>1534.4</ele>
        <time>2015-10-11T08:33:00Z</time>
      </trkpt>
      <trkpt lat="44.84367" lon="4.22037">
        <ele>1536.32</ele>
        <time>2015-10-11T08:33:10Z</time>
      </trkpt>
      <trkpt lat="44.84367" lon="4.22042">
        <ele>1536.8</ele>
        <time>2015-10-11T08:33:23Z</time>
      </trkpt>
      <trkpt lat="44.8437" lon="4.22044">
        <ele>1538.25</ele>
        <time>2015-10-11T08:33:33Z</time>
      </trkpt>
      <trkpt lat="44.84373" lon="4.22046">
        <ele>1540.17</ele>
        <time>2015-10-11T08:33:47Z</time>
      </trkpt>
      <trkpt lat="44.84381" lon="4.22048">
        <ele>1540.65</ele>
        <time>2015-10-11T08:33:58Z</time>
      </trkpt>
      <trkpt lat="44.84382" lon="4.22043">
        <ele>1542.57</ele>
        <time>2015-10-11T08:34:08Z</time>
      </trkpt>
      <trkpt lat="44.84386" lon="4.22037">
        <ele>1544.5</ele>
        <time>2015-10-11T08:34:19Z</time>
      </trkpt>
      <trkpt lat="44.84389" lon="4.22034">
        <ele>1546.42</ele>
        <time>2015-10-11T08:34:31Z</time>
      </trkpt>
      <trkpt lat="44.84393" lon="4.22027">
        <ele>1548.34</ele>
        <time>2015-10-11T08:34:45Z</time>
      </trkpt>
      <trkpt lat="44.84393" lon="4.22023">
        <ele>1548.34</ele>
        <time>2015-10-11T08:34:49Z</time>
      </trkpt>
      <trkpt lat="44.84397" lon="4.22019">
        <ele>1548.82</ele>
        <time>2015-10-11T08:35:02Z</time>
      </trkpt>
      <trkpt lat="44.84397" lon="4.22018">
        <ele>1545.46</ele>
        <time>2015-10-11T08:35:08Z</time>
      </trkpt>
      <trkpt lat="44.84397" lon="4.22018">
        <ele>1549.78</ele>
        <time>2015-10-11T08:35:09Z</time>
      </trkpt>
      <trkpt lat="44.84397" lon="4.22019">
        <ele>1547.38</ele>
        <time>2015-10-11T08:35:29Z</time>
      </trkpt>
      <trkpt lat="44.84397" lon="4.22019">
        <ele>1546.9</ele>
        <time>2015-10-11T08:35:59Z</time>
      </trkpt>
      <trkpt lat="44.84397" lon="4.22019">
        <ele>1546.9</ele>
        <time>2015-10-11T08:36:19Z</time>
      </trkpt>
      <trkpt lat="44.84397" lon="4.22019">
        <ele>1546.9</ele>
        <time>2015-10-11T08:36:46Z</time>
      </trkpt>
      <trkpt lat="44.84396" lon="4.22018">
        <ele>1546.9</ele>
        <time>2015-10-11T08:37:15Z</time>
      </trkpt>
      <trkpt lat="44.84395" lon="4.22018">
        <ele>1546.9</ele>
        <time>2015-10-11T08:37:52Z</time>
      </trkpt>
      <trkpt lat="44.84395" lon="4.22019">
        <ele>1546.9</ele>
        <time>2015-10-11T08:38:25Z</time>
      </trkpt>
      <trkpt lat="44.84397" lon="4.22017">
        <ele>1546.9</ele>
        <time>2015-10-11T08:38:57Z</time>
      </trkpt>
      <trkpt lat="44.84397" lon="4.22018">
        <ele>1548.34</ele>
        <time>2015-10-11T08:39:33Z</time>
      </trkpt>
      <trkpt lat="44.84396" lon="4.22018">
        <ele>1548.34</ele>
        <time>2015-10-11T08:40:03Z</time>
      </trkpt>
      <trkpt lat="44.84396" lon="4.22018">
        <ele>1548.34</ele>
        <time>2015-10-11T08:40:29Z</time>
      </trkpt>
      <trkpt lat="44.84397" lon="4.22018">
        <ele>1548.34</ele>
        <time>2015-10-11T08:41:02Z</time>
      </trkpt>
      <trkpt lat="44.84397" lon="4.22017">
        <ele>1548.34</ele>
        <time>2015-10-11T08:41:34Z</time>
      </trkpt>
      <trkpt lat="44.84397" lon="4.22018">
        <ele>1548.82</ele>
        <time>2015-10-11T08:42:01Z</time>
      </trkpt>
      <trkpt lat="44.84397" lon="4.22018">
        <ele>1548.82</ele>
        <time>2015-10-11T08:42:33Z</time>
      </trkpt>
      <trkpt lat="44.84397" lon="4.22019">
        <ele>1548.82</ele>
        <time>2015-10-11T08:43:09Z</time>
      </trkpt>
      <trkpt lat="44.84396" lon="4.22019">
        <ele>1548.82</ele>
        <time>2015-10-11T08:43:46Z</time>
      </trkpt>
      <trkpt lat="44.84397" lon="4.22019">
        <ele>1548.82</ele>
        <time>2015-10-11T08:44:09Z</time>
      </trkpt>
      <trkpt lat="44.84397" lon="4.22019">
        <ele>1548.82</ele>
        <time>2015-10-11T08:44:40Z</time>
      </trkpt>
      <trkpt lat="44.84397" lon="4.22018">
        <ele>1549.3</ele>
        <time>2015-10-11T08:45:15Z</time>
      </trkpt>
      <trkpt lat="44.84397" lon="4.22018">
        <ele>1549.3</ele>
        <time>2015-10-11T08:45:51Z</time>
      </trkpt>
      <trkpt lat="44.84397" lon="4.22018">
        <ele>1549.3</ele>
        <time>2015-10-11T08:46:21Z</time>
      </trkpt>
      <trkpt lat="44.84397" lon="4.22018">
        <ele>1549.3</ele>
        <time>2015-10-11T08:46:51Z</time>
      </trkpt>
      <trkpt lat="44.84397" lon="4.22018">
        <ele>1549.3</ele>
        <time>2015-10-11T08:47:25Z</time>
      </trkpt>
      <trkpt lat="44.84398" lon="4.22018">
        <ele>1549.3</ele>
        <time>2015-10-11T08:48:06Z</time>
      </trkpt>
      <trkpt lat="44.84398" lon="4.22017">
        <ele>1549.3</ele>
        <time>2015-10-11T08:48:37Z</time>
      </trkpt>
      <trkpt lat="44.84398" lon="4.22017">
        <ele>1549.78</ele>
        <time>2015-10-11T08:49:11Z</time>
      </trkpt>
      <trkpt lat="44.84398" lon="4.22018">
        <ele>1549.78</ele>
        <time>2015-10-11T08:49:47Z</time>
      </trkpt>
      <trkpt lat="44.84398" lon="4.22018">
        <ele>1549.78</ele>
        <time>2015-10-11T08:50:17Z</time>
      </trkpt>
      <trkpt lat="44.84398" lon="4.22018">
        <ele>1549.78</ele>
        <time>2015-10-11T08:50:50Z</time>
      </trkpt>
      <trkpt lat="44.84397" lon="4.22018">
        <ele>1549.78</ele>
        <time>2015-10-11T08:51:21Z</time>
      </trkpt>
      <trkpt lat="44.84397" lon="4.22018">
        <ele>1548.82</ele>
        <time>2015-10-11T08:51:55Z</time>
      </trkpt>
      <trkpt lat="44.84397" lon="4.22018">
        <ele>1548.82</ele>
        <time>2015-10-11T08:52:33Z</time>
      </trkpt>
      <trkpt lat="44.84397" lon="4.22018">
        <ele>1548.82</ele>
        <time>2015-10-11T08:53:11Z</time>
      </trkpt>
      <trkpt lat="44.84397" lon="4.22018">
        <ele>1548.82</ele>
        <time>2015-10-11T08:53:48Z</time>
      </trkpt>
      <trkpt lat="44.84397" lon="4.2202">
        <ele>1548.82</ele>
        <time>2015-10-11T08:54:22Z</time>
      </trkpt>
      <trkpt lat="44.84395" lon="4.22025">
        <ele>1548.82</ele>
        <time>2015-10-11T08:54:35Z</time>
      </trkpt>
      <trkpt lat="44.84395" lon="4.22026">
        <ele>1548.82</ele>
        <time>2015-10-11T08:55:12Z</time>
      </trkpt>
      <trkpt lat="44.84395" lon="4.22026">
        <ele>1548.82</ele>
        <time>2015-10-11T08:55:52Z</time>
      </trkpt>
      <trkpt lat="44.84395" lon="4.22025">
        <ele>1548.82</ele>
        <time>2015-10-11T08:56:31Z</time>
      </trkpt>
      <trkpt lat="44.84395" lon="4.22026">
        <ele>1548.82</ele>
        <time>2015-10-11T08:56:58Z</time>
      </trkpt>
      <trkpt lat="44.84397" lon="4.22024">
        <ele>1548.82</ele>
        <time>2015-10-11T08:57:41Z</time>
      </trkpt>
      <trkpt lat="44.84397" lon="4.22026">
        <ele>1548.82</ele>
        <time>2015-10-11T08:58:18Z</time>
      </trkpt>
      <trkpt lat="44.84397" lon="4.22027">
        <ele>1548.34</ele>
        <time>2015-10-11T08:58:56Z</time>
      </trkpt>
      <trkpt lat="44.84396" lon="4.22027">
        <ele>1548.34</ele>
        <time>2015-10-11T08:59:33Z</time>
      </trkpt>
      <trkpt lat="44.84396" lon="4.22025">
        <ele>1548.34</ele>
        <time>2015-10-11T09:00:09Z</time>
      </trkpt>
      <trkpt lat="44.84396" lon="4.22026">
        <ele>1548.34</ele>
        <time>2015-10-11T09:00:55Z</time>
      </trkpt>
      <trkpt lat="44.84395" lon="4.22027">
        <ele>1547.86</ele>
        <time>2015-10-11T09:01:38Z</time>
      </trkpt>
      <trkpt lat="44.84395" lon="4.22026">
        <ele>1547.86</ele>
        <time>2015-10-11T09:02:26Z</time>
      </trkpt>
      <trkpt lat="44.84395" lon="4.22026">
        <ele>1547.86</ele>
        <time>2015-10-11T09:03:11Z</time>
      </trkpt>
      <trkpt lat="44.84396" lon="4.22027">
        <ele>1547.86</ele>
        <time>2015-10-11T09:03:54Z</time>
      </trkpt>
      <trkpt lat="44.84396" lon="4.22026">
        <ele>1549.3</ele>
        <time>2015-10-11T09:04:28Z</time>
      </trkpt>
      <trkpt lat="44.84397" lon="4.22021">
        <ele>1549.3</ele>
        <time>2015-10-11T09:04:39Z</time>
      </trkpt>
      <trkpt lat="44.84397" lon="4.22019">
        <ele>1547.86</ele>
        <time>2015-10-11T09:04:46Z</time>
      </trkpt>
      <trkpt lat="44.84396" lon="4.22019">
        <ele>1547.86</ele>
        <time>2015-10-11T09:05:04Z</time>
      </trkpt>
      <trkpt lat="44.84397" lon="4.22018">
        <ele>1549.3</ele>
        <time>2015-10-11T09:05:18Z</time>
      </trkpt>
      <trkpt lat="44.84395" lon="4.22019">
        <ele>1549.3</ele>
        <time>2015-10-11T09:05:34Z</time>
      </trkpt>
      <trkpt lat="44.844" lon="4.22013">
        <ele>1549.3</ele>
        <time>2015-10-11T09:05:49Z</time>
      </trkpt>
      <trkpt lat="44.84399" lon="4.22011">
        <ele>1549.3</ele>
        <time>2015-10-11T09:06:05Z</time>
      </trkpt>
      <trkpt lat="44.84398" lon="4.22008">
        <ele>1549.3</ele>
        <time>2015-10-11T09:06:17Z</time>
      </trkpt>
      <trkpt lat="44.84396" lon="4.22001">
        <ele>1547.86</ele>
        <time>2015-10-11T09:06:26Z</time>
      </trkpt>
      <trkpt lat="44.84401" lon="4.21999">
        <ele>1546.9</ele>
        <time>2015-10-11T09:06:39Z</time>
      </trkpt>
      <trkpt lat="44.84404" lon="4.21991">
        <ele>1545.46</ele>
        <time>2015-10-11T09:06:52Z</time>
      </trkpt>
      <trkpt lat="44.84401" lon="4.21987">
        <ele>1544.01</ele>
        <time>2015-10-11T09:07:04Z</time>
      </trkpt>
      <trkpt lat="44.84398" lon="4.21985">
        <ele>1542.57</ele>
        <time>2015-10-11T09:07:20Z</time>
      </trkpt>
      <trkpt lat="44.84397" lon="4.21983">
        <ele>1541.13</ele>
        <time>2015-10-11T09:07:33Z</time>
      </trkpt>
      <trkpt lat="44.84396" lon="4.21982">
        <ele>1540.65</ele>
        <time>2015-10-11T09:07:46Z</time>
      </trkpt>
      <trkpt lat="44.84392" lon="4.21977">
        <ele>1538.25</ele>
        <time>2015-10-11T09:08:00Z</time>
      </trkpt>
      <trkpt lat="44.84393" lon="4.2197">
        <ele>1536.8</ele>
        <time>2015-10-11T09:08:11Z</time>
      </trkpt>
      <trkpt lat="44.8439" lon="4.2197">
        <ele>1534.4</ele>
        <time>2015-10-11T09:08:24Z</time>
      </trkpt>
      <trkpt lat="44.84386" lon="4.21969">
        <ele>1532.96</ele>
        <time>2015-10-11T09:08:40Z</time>
      </trkpt>
      <trkpt lat="44.84381" lon="4.2197">
        <ele>1531.52</ele>
        <time>2015-10-11T09:08:53Z</time>
      </trkpt>
      <trkpt lat="44.84377" lon="4.21971">
        <ele>1530.56</ele>
        <time>2015-10-11T09:09:03Z</time>
      </trkpt>
      <trkpt lat="44.84374" lon="4.21971">
        <ele>1529.11</ele>
        <time>2015-10-11T09:09:14Z</time>
      </trkpt>
      <trkpt lat="44.8437" lon="4.21974">
        <ele>1529.11</ele>
        <time>2015-10-11T09:09:26Z</time>
      </trkpt>
      <trkpt lat="44.84371" lon="4.21972">
        <ele>1527.67</ele>
        <time>2015-10-11T09:09:38Z</time>
      </trkpt>
      <trkpt lat="44.84372" lon="4.21962">
        <ele>1525.75</ele>
        <time>2015-10-11T09:09:52Z</time>
      </trkpt>
      <trkpt lat="44.84373" lon="4.21958">
        <ele>1524.31</ele>
        <time>2015-10-11T09:10:03Z</time>
      </trkpt>
      <trkpt lat="44.84374" lon="4.21954">
        <ele>1523.35</ele>
        <time>2015-10-11T09:10:14Z</time>
      </trkpt>
      <trkpt lat="44.84373" lon="4.2195">
        <ele>1520.94</ele>
        <time>2015-10-11T09:10:28Z</time>
      </trkpt>
      <trkpt lat="44.8437" lon="4.21946">
        <ele>1519.02</ele>
        <time>2015-10-11T09:10:39Z</time>
      </trkpt>
      <trkpt lat="44.84372" lon="4.21943">
        <ele>1517.58</ele>
        <time>2015-10-11T09:10:50Z</time>
      </trkpt>
      <trkpt lat="44.84365" lon="4.21948">
        <ele>1515.18</ele>
        <time>2015-10-11T09:11:02Z</time>
      </trkpt>
      <trkpt lat="44.84365" lon="4.21945">
        <ele>1513.25</ele>
        <time>2015-10-11T09:11:14Z</time>
      </trkpt>
      <trkpt lat="44.84362" lon="4.21942">
        <ele>1511.81</ele>
        <time>2015-10-11T09:11:25Z</time>
      </trkpt>
      <trkpt lat="44.84359" lon="4.21939">
        <ele>1509.89</ele>
        <time>2015-10-11T09:11:38Z</time>
      </trkpt>
      <trkpt lat="44.84358" lon="4.21938">
        <ele>1508.93</ele>
        <time>2015-10-11T09:11:40Z</time>
      </trkpt>
      <trkpt lat="44.84356" lon="4.21936">
        <ele>1507</ele>
        <time>2015-10-11T09:11:52Z</time>
      </trkpt>
      <trkpt lat="44.84352" lon="4.21931">
        <ele>1504.6</ele>
        <time>2015-10-11T09:12:03Z</time>
      </trkpt>
      <trkpt lat="44.84355" lon="4.21924">
        <ele>1502.2</ele>
        <time>2015-10-11T09:12:15Z</time>
      </trkpt>
      <trkpt lat="44.84357" lon="4.21917">
        <ele>1499.31</ele>
        <time>2015-10-11T09:12:24Z</time>
      </trkpt>
      <trkpt lat="44.84356" lon="4.21908">
        <ele>1497.39</ele>
        <time>2015-10-11T09:12:39Z</time>
      </trkpt>
      <trkpt lat="44.84354" lon="4.21906">
        <ele>1494.99</ele>
        <time>2015-10-11T09:12:50Z</time>
      </trkpt>
      <trkpt lat="44.84348" lon="4.21907">
        <ele>1493.55</ele>
        <time>2015-10-11T09:13:01Z</time>
      </trkpt>
      <trkpt lat="44.84347" lon="4.21903">
        <ele>1491.14</ele>
        <time>2015-10-11T09:13:14Z</time>
      </trkpt>
      <trkpt lat="44.84351" lon="4.21893">
        <ele>1489.22</ele>
        <time>2015-10-11T09:13:26Z</time>
      </trkpt>
      <trkpt lat="44.8435" lon="4.21893">
        <ele>1487.3</ele>
        <time>2015-10-11T09:13:36Z</time>
      </trkpt>
      <trkpt lat="44.84345" lon="4.21893">
        <ele>1485.37</ele>
        <time>2015-10-11T09:13:48Z</time>
      </trkpt>
      <trkpt lat="44.84346" lon="4.21891">
        <ele>1484.89</ele>
        <time>2015-10-11T09:13:58Z</time>
      </trkpt>
      <trkpt lat="44.84349" lon="4.21883">
        <ele>1482.49</ele>
        <time>2015-10-11T09:14:07Z</time>
      </trkpt>
      <trkpt lat="44.84343" lon="4.21885">
        <ele>1480.09</ele>
        <time>2015-10-11T09:14:20Z</time>
      </trkpt>
      <trkpt lat="44.84341" lon="4.21889">
        <ele>1478.65</ele>
        <time>2015-10-11T09:14:31Z</time>
      </trkpt>
      <trkpt lat="44.8434" lon="4.21887">
        <ele>1477.68</ele>
        <time>2015-10-11T09:14:45Z</time>
      </trkpt>
      <trkpt lat="44.8434" lon="4.21885">
        <ele>1476.24</ele>
        <time>2015-10-11T09:15:00Z</time>
      </trkpt>
      <trkpt lat="44.84337" lon="4.21882">
        <ele>1474.8</ele>
        <time>2015-10-11T09:15:12Z</time>
      </trkpt>
      <trkpt lat="44.84334" lon="4.21881">
        <ele>1473.36</ele>
        <time>2015-10-11T09:15:23Z</time>
      </trkpt>
      <trkpt lat="44.84336" lon="4.21881">
        <ele>1473.36</ele>
        <time>2015-10-11T09:15:43Z</time>
      </trkpt>
      <trkpt lat="44.84334" lon="4.21882">
        <ele>1473.84</ele>
        <time>2015-10-11T09:15:58Z</time>
      </trkpt>
      <trkpt lat="44.84332" lon="4.21882">
        <ele>1472.4</ele>
        <time>2015-10-11T09:16:09Z</time>
      </trkpt>
      <trkpt lat="44.84329" lon="4.2188">
        <ele>1470.95</ele>
        <time>2015-10-11T09:16:18Z</time>
      </trkpt>
      <trkpt lat="44.84328" lon="4.2188">
        <ele>1469.99</ele>
        <time>2015-10-11T09:16:30Z</time>
      </trkpt>
      <trkpt lat="44.84328" lon="4.21879">
        <ele>1468.07</ele>
        <time>2015-10-11T09:16:41Z</time>
      </trkpt>
      <trkpt lat="44.84329" lon="4.21877">
        <ele>1467.59</ele>
        <time>2015-10-11T09:16:49Z</time>
      </trkpt>
      <trkpt lat="44.84328" lon="4.21874">
        <ele>1466.15</ele>
        <time>2015-10-11T09:17:03Z</time>
      </trkpt>
      <trkpt lat="44.84327" lon="4.21877">
        <ele>1465.67</ele>
        <time>2015-10-11T09:17:15Z</time>
      </trkpt>
      <trkpt lat="44.84327" lon="4.21881">
        <ele>1468.07</ele>
        <time>2015-10-11T09:17:26Z</time>
      </trkpt>
      <trkpt lat="44.84329" lon="4.21882">
        <ele>1469.99</ele>
        <time>2015-10-11T09:17:36Z</time>
      </trkpt>
      <trkpt lat="44.84326" lon="4.21885">
        <ele>1470.95</ele>
        <time>2015-10-11T09:17:47Z</time>
      </trkpt>
      <trkpt lat="44.84321" lon="4.21888">
        <ele>1468.55</ele>
        <time>2015-10-11T09:18:01Z</time>
      </trkpt>
      <trkpt lat="44.8432" lon="4.21888">
        <ele>1467.11</ele>
        <time>2015-10-11T09:18:12Z</time>
      </trkpt>
      <trkpt lat="44.84317" lon="4.21889">
        <ele>1465.19</ele>
        <time>2015-10-11T09:18:26Z</time>
      </trkpt>
      <trkpt lat="44.84313" lon="4.21891">
        <ele>1463.26</ele>
        <time>2015-10-11T09:18:38Z</time>
      </trkpt>
      <trkpt lat="44.84309" lon="4.21892">
        <ele>1461.34</ele>
        <time>2015-10-11T09:18:50Z</time>
      </trkpt>
      <trkpt lat="44.84308" lon="4.2189">
        <ele>1460.38</ele>
        <time>2015-10-11T09:18:54Z</time>
      </trkpt>
      <trkpt lat="44.8431" lon="4.21883">
        <ele>1457.98</ele>
        <time>2015-10-11T09:19:06Z</time>
      </trkpt>
      <trkpt lat="44.84309" lon="4.21879">
        <ele>1456.53</ele>
        <time>2015-10-11T09:19:17Z</time>
      </trkpt>
      <trkpt lat="44.84311" lon="4.21875">
        <ele>1455.09</ele>
        <time>2015-10-11T09:19:30Z</time>
      </trkpt>
      <trkpt lat="44.8431" lon="4.2187">
        <ele>1452.21</ele>
        <time>2015-10-11T09:19:42Z</time>
      </trkpt>
      <trkpt lat="44.84309" lon="4.21862">
        <ele>1449.81</ele>
        <time>2015-10-11T09:19:56Z</time>
      </trkpt>
      <trkpt lat="44.8431" lon="4.21856">
        <ele>1447.88</ele>
        <time>2015-10-11T09:20:06Z</time>
      </trkpt>
      <trkpt lat="44.84314" lon="4.21851">
        <ele>1445.96</ele>
        <time>2015-10-11T09:20:18Z</time>
      </trkpt>
      <trkpt lat="44.84315" lon="4.21844">
        <ele>1443.56</ele>
        <time>2015-10-11T09:20:31Z</time>
      </trkpt>
      <trkpt lat="44.84311" lon="4.21839">
        <ele>1440.19</ele>
        <time>2015-10-11T09:20:43Z</time>
      </trkpt>
      <trkpt lat="44.84306" lon="4.21839">
        <ele>1439.71</ele>
        <time>2015-10-11T09:20:56Z</time>
      </trkpt>
      <trkpt lat="44.843" lon="4.21834">
        <ele>1436.35</ele>
        <time>2015-10-11T09:21:08Z</time>
      </trkpt>
      <trkpt lat="44.84296" lon="4.21825">
        <ele>1433.46</ele>
        <time>2015-10-11T09:21:22Z</time>
      </trkpt>
      <trkpt lat="44.84293" lon="4.21823">
        <ele>1432.02</ele>
        <time>2015-10-11T09:21:37Z</time>
      </trkpt>
      <trkpt lat="44.84293" lon="4.2182">
        <ele>1432.02</ele>
        <time>2015-10-11T09:22:11Z</time>
      </trkpt>
      <trkpt lat="44.84292" lon="4.21824">
        <ele>1432.02</ele>
        <time>2015-10-11T09:22:33Z</time>
      </trkpt>
      <trkpt lat="44.84292" lon="4.21824">
        <ele>1431.54</ele>
        <time>2015-10-11T09:23:06Z</time>
      </trkpt>
      <trkpt lat="44.84294" lon="4.21824">
        <ele>1431.54</ele>
        <time>2015-10-11T09:23:36Z</time>
      </trkpt>
      <trkpt lat="44.84295" lon="4.21822">
        <ele>1431.54</ele>
        <time>2015-10-11T09:23:59Z</time>
      </trkpt>
      <trkpt lat="44.84297" lon="4.21823">
        <ele>1431.54</ele>
        <time>2015-10-11T09:24:23Z</time>
      </trkpt>
      <trkpt lat="44.84294" lon="4.21824">
        <ele>1431.54</ele>
        <time>2015-10-11T09:24:43Z</time>
      </trkpt>
      <trkpt lat="44.84294" lon="4.21821">
        <ele>1431.54</ele>
        <time>2015-10-11T09:25:10Z</time>
      </trkpt>
      <trkpt lat="44.84293" lon="4.21824">
        <ele>1431.54</ele>
        <time>2015-10-11T09:25:36Z</time>
      </trkpt>
      <trkpt lat="44.84293" lon="4.21822">
        <ele>1431.54</ele>
        <time>2015-10-11T09:26:02Z</time>
      </trkpt>
      <trkpt lat="44.84292" lon="4.21821">
        <ele>1431.54</ele>
        <time>2015-10-11T09:26:29Z</time>
      </trkpt>
      <trkpt lat="44.84291" lon="4.21821">
        <ele>1431.54</ele>
        <time>2015-10-11T09:26:51Z</time>
      </trkpt>
      <trkpt lat="44.84292" lon="4.21821">
        <ele>1431.54</ele>
        <time>2015-10-11T09:27:22Z</time>
      </trkpt>
      <trkpt lat="44.84291" lon="4.21823">
        <ele>1431.06</ele>
        <time>2015-10-11T09:27:52Z</time>
      </trkpt>
      <trkpt lat="44.84293" lon="4.21822">
        <ele>1431.06</ele>
        <time>2015-10-11T09:28:13Z</time>
      </trkpt>
      <trkpt lat="44.84293" lon="4.2182">
        <ele>1431.06</ele>
        <time>2015-10-11T09:28:37Z</time>
      </trkpt>
      <trkpt lat="44.84291" lon="4.2182">
        <ele>1431.06</ele>
        <time>2015-10-11T09:28:57Z</time>
      </trkpt>
      <trkpt lat="44.8429" lon="4.21819">
        <ele>1431.06</ele>
        <time>2015-10-11T09:29:25Z</time>
      </trkpt>
      <trkpt lat="44.84289" lon="4.2182">
        <ele>1431.06</ele>
        <time>2015-10-11T09:29:52Z</time>
      </trkpt>
      <trkpt lat="44.84289" lon="4.21821">
        <ele>1431.06</ele>
        <time>2015-10-11T09:30:21Z</time>
      </trkpt>
      <trkpt lat="44.84292" lon="4.2182">
        <ele>1431.06</ele>
        <time>2015-10-11T09:31:01Z</time>
      </trkpt>
      <trkpt lat="44.84291" lon="4.2182">
        <ele>1431.06</ele>
        <time>2015-10-11T09:31:42Z</time>
      </trkpt>
      <trkpt lat="44.84292" lon="4.21822">
        <ele>1431.06</ele>
        <time>2015-10-11T09:32:14Z</time>
      </trkpt>
      <trkpt lat="44.84291" lon="4.21824">
        <ele>1431.06</ele>
        <time>2015-10-11T09:32:48Z</time>
      </trkpt>
      <trkpt lat="44.84292" lon="4.21824">
        <ele>1431.06</ele>
        <time>2015-10-11T09:33:19Z</time>
      </trkpt>
      <trkpt lat="44.84293" lon="4.21819">
        <ele>1431.06</ele>
        <time>2015-10-11T09:33:50Z</time>
      </trkpt>
      <trkpt lat="44.84293" lon="4.21822">
        <ele>1431.06</ele>
        <time>2015-10-11T09:34:16Z</time>
      </trkpt>
      <trkpt lat="44.84294" lon="4.21825">
        <ele>1430.58</ele>
        <time>2015-10-11T09:34:40Z</time>
      </trkpt>
      <trkpt lat="44.84292" lon="4.21823">
        <ele>1430.58</ele>
        <time>2015-10-11T09:35:06Z</time>
      </trkpt>
      <trkpt lat="44.84292" lon="4.21821">
        <ele>1430.58</ele>
        <time>2015-10-11T09:35:38Z</time>
      </trkpt>
      <trkpt lat="44.84293" lon="4.2182">
        <ele>1430.58</ele>
        <time>2015-10-11T09:36:10Z</time>
      </trkpt>
      <trkpt lat="44.8429" lon="4.21822">
        <ele>1430.58</ele>
        <time>2015-10-11T09:36:46Z</time>
      </trkpt>
      <trkpt lat="44.84292" lon="4.21823">
        <ele>1430.58</ele>
        <time>2015-10-11T09:37:23Z</time>
      </trkpt>
      <trkpt lat="44.84293" lon="4.21821">
        <ele>1430.58</ele>
        <time>2015-10-11T09:37:52Z</time>
      </trkpt>
      <trkpt lat="44.84291" lon="4.21822">
        <ele>1430.58</ele>
        <time>2015-10-11T09:38:22Z</time>
      </trkpt>
      <trkpt lat="44.84291" lon="4.21823">
        <ele>1430.58</ele>
        <time>2015-10-11T09:38:48Z</time>
      </trkpt>
      <trkpt lat="44.84292" lon="4.21821">
        <ele>1430.58</ele>
        <time>2015-10-11T09:39:19Z</time>
      </trkpt>
      <trkpt lat="44.84291" lon="4.21822">
        <ele>1430.58</ele>
        <time>2015-10-11T09:39:49Z</time>
      </trkpt>
      <trkpt lat="44.84292" lon="4.21821">
        <ele>1430.58</ele>
        <time>2015-10-11T09:40:24Z</time>
      </trkpt>
      <trkpt lat="44.84291" lon="4.21822">
        <ele>1430.58</ele>
        <time>2015-10-11T09:40:50Z</time>
      </trkpt>
      <trkpt lat="44.8429" lon="4.21824">
        <ele>1430.58</ele>
        <time>2015-10-11T09:41:19Z</time>
      </trkpt>
      <trkpt lat="44.84291" lon="4.21822">
        <ele>1430.58</ele>
        <time>2015-10-11T09:41:47Z</time>
      </trkpt>
      <trkpt lat="44.84292" lon="4.21821">
        <ele>1430.58</ele>
        <time>2015-10-11T09:42:12Z</time>
      </trkpt>
      <trkpt lat="44.84294" lon="4.21824">
        <ele>1430.58</ele>
        <time>2015-10-11T09:42:51Z</time>
      </trkpt>
      <trkpt lat="44.84293" lon="4.21825">
        <ele>1430.58</ele>
        <time>2015-10-11T09:43:31Z</time>
      </trkpt>
      <trkpt lat="44.84293" lon="4.21822">
        <ele>1430.1</ele>
        <time>2015-10-11T09:44:12Z</time>
      </trkpt>
      <trkpt lat="44.84292" lon="4.21822">
        <ele>1430.1</ele>
        <time>2015-10-11T09:44:50Z</time>
      </trkpt>
      <trkpt lat="44.84292" lon="4.21823">
        <ele>1430.1</ele>
        <time>2015-10-11T09:45:24Z</time>
      </trkpt>
      <trkpt lat="44.8429" lon="4.21822">
        <ele>1430.1</ele>
        <time>2015-10-11T09:46:04Z</time>
      </trkpt>
      <trkpt lat="44.84291" lon="4.21822">
        <ele>1430.1</ele>
        <time>2015-10-11T09:46:42Z</time>
      </trkpt>
      <trkpt lat="44.8429" lon="4.21823">
        <ele>1430.58</ele>
        <time>2015-10-11T09:47:14Z</time>
      </trkpt>
      <trkpt lat="44.84291" lon="4.21823">
        <ele>1430.58</ele>
        <time>2015-10-11T09:47:49Z</time>
      </trkpt>
      <trkpt lat="44.84291" lon="4.21822">
        <ele>1430.58</ele>
        <time>2015-10-11T09:48:11Z</time>
      </trkpt>
      <trkpt lat="44.84291" lon="4.21821">
        <ele>1430.58</ele>
        <time>2015-10-11T09:48:41Z</time>
      </trkpt>
      <trkpt lat="44.84291" lon="4.21822">
        <ele>1430.58</ele>
        <time>2015-10-11T09:49:08Z</time>
      </trkpt>
      <trkpt lat="44.84292" lon="4.2182">
        <ele>1430.58</ele>
        <time>2015-10-11T09:49:34Z</time>
      </trkpt>
      <trkpt lat="44.84292" lon="4.2182">
        <ele>1430.58</ele>
        <time>2015-10-11T09:50:00Z</time>
      </trkpt>
      <trkpt lat="44.84292" lon="4.21819">
        <ele>1430.58</ele>
        <time>2015-10-11T09:50:31Z</time>
      </trkpt>
      <trkpt lat="44.84292" lon="4.2182">
        <ele>1432.02</ele>
        <time>2015-10-11T09:50:59Z</time>
      </trkpt>
      <trkpt lat="44.84295" lon="4.21811">
        <ele>1432.02</ele>
        <time>2015-10-11T09:51:13Z</time>
      </trkpt>
      <trkpt lat="44.843" lon="4.21799">
        <ele>1432.02</ele>
        <time>2015-10-11T09:51:26Z</time>
      </trkpt>
      <trkpt lat="44.84307" lon="4.21798">
        <ele>1432.02</ele>
        <time>2015-10-11T09:51:39Z</time>
      </trkpt>
      <trkpt lat="44.84315" lon="4.21793">
        <ele>1432.02</ele>
        <time>2015-10-11T09:51:53Z</time>
      </trkpt>
      <trkpt lat="44.84319" lon="4.21785">
        <ele>1432.02</ele>
        <time>2015-10-11T09:52:05Z</time>
      </trkpt>
      <trkpt lat="44.84324" lon="4.2177">
        <ele>1430.58</ele>
        <time>2015-10-11T09:52:19Z</time>
      </trkpt>
      <trkpt lat="44.84327" lon="4.21759">
        <ele>1430.1</ele>
        <time>2015-10-11T09:52:30Z</time>
      </trkpt>
      <trkpt lat="44.84329" lon="4.21745">
        <ele>1429.14</ele>
        <time>2015-10-11T09:52:45Z</time>
      </trkpt>
      <trkpt lat="44.84333" lon="4.21738">
        <ele>1428.18</ele>
        <time>2015-10-11T09:52:58Z</time>
      </trkpt>
      <trkpt lat="44.84332" lon="4.21734">
        <ele>1427.7</ele>
        <time>2015-10-11T09:53:11Z</time>
      </trkpt>
      <trkpt lat="44.84329" lon="4.21728">
        <ele>1427.21</ele>
        <time>2015-10-11T09:53:23Z</time>
      </trkpt>
      <trkpt lat="44.84328" lon="4.21723">
        <ele>1426.73</ele>
        <time>2015-10-11T09:53:32Z</time>
      </trkpt>
      <trkpt lat="44.84328" lon="4.21717">
        <ele>1425.77</ele>
        <time>2015-10-11T09:53:43Z</time>
      </trkpt>
      <trkpt lat="44.84329" lon="4.21709">
        <ele>1424.81</ele>
        <time>2015-10-11T09:53:52Z</time>
      </trkpt>
      <trkpt lat="44.8433" lon="4.21705">
        <ele>1424.81</ele>
        <time>2015-10-11T09:53:55Z</time>
      </trkpt>
      <trkpt lat="44.84329" lon="4.21694">
        <ele>1423.85</ele>
        <time>2015-10-11T09:54:07Z</time>
      </trkpt>
      <trkpt lat="44.84328" lon="4.21688">
        <ele>1423.85</ele>
        <time>2015-10-11T09:54:20Z</time>
      </trkpt>
      <trkpt lat="44.84325" lon="4.21689">
        <ele>1422.89</ele>
        <time>2015-10-11T09:54:34Z</time>
      </trkpt>
      <trkpt lat="44.84325" lon="4.21677">
        <ele>1422.41</ele>
        <time>2015-10-11T09:54:49Z</time>
      </trkpt>
      <trkpt lat="44.84323" lon="4.21674">
        <ele>1421.93</ele>
        <time>2015-10-11T09:55:03Z</time>
      </trkpt>
      <trkpt lat="44.84323" lon="4.21674">
        <ele>1421.93</ele>
        <time>2015-10-11T09:55:31Z</time>
      </trkpt>
      <trkpt lat="44.84323" lon="4.21674">
        <ele>1423.37</ele>
        <time>2015-10-11T09:55:36Z</time>
      </trkpt>
    </trkseg>
  </trk>
</gpx>